createdAt,value
2023-08-15T00:04:54.513Z,63.72
2023-08-15T00:09:57.708Z,64.41
2023-08-15T00:15:02.495Z,69.51
2023-08-15T00:20:06.672Z,66.87
2023-08-15T00:25:10.193Z,66.37
2023-08-15T00:30:15.110Z,68.48
2023-08-15T00:35:18.341Z,69.43
2023-08-15T00:40:21.702Z,68.21
2023-08-15T00:45:26.252Z,65.99
2023-08-15T00:50:29.651Z,66.03
2023-08-15T00:55:32.931Z,66.85
2023-08-15T01:00:37.515Z,70.97
2023-08-15T01:05:41.316Z,72.41
2023-08-15T01:10:45.086Z,71.27
2023-08-15T01:15:53.620Z,69.22
2023-08-15T01:20:57.900Z,68.82
2023-08-15T01:26:02.890Z,68.69
2023-08-15T01:31:13.013Z,69.71
2023-08-15T01:36:20.810Z,70.31
2023-08-15T01:41:26.753Z,70.81
2023-08-15T01:46:29.951Z,70.89
2023-08-15T01:51:33.186Z,71.05
2023-08-15T01:56:37.762Z,76.05
2023-08-15T02:01:41.003Z,75.19
2023-08-15T02:06:44.181Z,73.92
2023-08-15T02:11:48.751Z,77.64
2023-08-15T02:16:51.894Z,78.13
2023-08-15T02:21:55.039Z,75.51
2023-08-15T02:26:59.607Z,74.99
2023-08-15T02:32:03.198Z,75.67
2023-08-15T02:37:06.530Z,75.00
2023-08-15T02:42:11.122Z,73.66
2023-08-15T02:47:14.331Z,72.26
2023-08-15T02:52:17.451Z,72.83
2023-08-15T02:57:22.205Z,71.76
2023-08-15T03:02:25.757Z,70.72
2023-08-15T03:07:29.037Z,70.54
2023-08-15T03:12:33.668Z,72.55
2023-08-15T03:17:37.085Z,71.39
2023-08-15T03:22:40.251Z,72.32
2023-08-15T03:27:44.793Z,70.42
2023-08-15T03:32:47.980Z,68.65
2023-08-15T03:37:51.130Z,68.66
2023-08-15T03:42:55.724Z,69.52
2023-08-15T03:47:59.200Z,67.40
2023-08-15T03:53:02.600Z,67.84
2023-08-15T03:58:07.256Z,66.85
2023-08-15T04:03:10.510Z,68.26
2023-08-15T04:08:14.081Z,69.75
2023-08-15T04:13:18.595Z,69.03
2023-08-15T04:18:21.791Z,67.65
2023-08-15T04:23:24.999Z,68.86
2023-08-15T04:28:29.709Z,71.95
2023-08-15T04:33:33.117Z,70.85
2023-08-15T04:38:36.304Z,72.50
2023-08-15T04:43:41.187Z,73.06
2023-08-15T04:48:44.372Z,71.75
2023-08-15T04:53:47.556Z,70.04
2023-08-15T04:58:52.292Z,71.03
2023-08-15T05:03:55.526Z,72.50
2023-08-15T05:08:58.753Z,72.17
2023-08-15T05:14:03.637Z,69.28
2023-08-15T05:19:06.973Z,69.83
2023-08-15T05:24:10.259Z,70.16
2023-08-15T05:29:14.813Z,66.99
2023-08-15T05:34:17.983Z,67.56
2023-08-15T05:39:21.150Z,66.63
2023-08-15T05:44:25.731Z,67.68
2023-08-15T05:49:28.910Z,66.54
2023-08-15T05:54:32.201Z,67.70
2023-08-15T05:59:36.714Z,67.30
2023-08-15T06:04:39.983Z,66.03
2023-08-15T06:09:43.187Z,68.01
2023-08-15T06:14:49.016Z,68.30
2023-08-15T06:19:52.245Z,64.24
2023-08-15T06:24:55.595Z,63.48
2023-08-15T06:30:00.174Z,61.56
2023-08-15T06:35:04.516Z,59.36
2023-08-15T06:40:10.168Z,56.79
2023-08-15T06:45:17.621Z,53.07
2023-08-15T06:50:22.113Z,50.44
2023-08-15T06:55:26.447Z,49.35
2023-08-15T07:00:31.055Z,49.65
2023-08-15T07:05:34.264Z,46.68
2023-08-15T07:10:37.696Z,46.59
2023-08-15T07:15:42.279Z,50.61
2023-08-15T07:20:46.203Z,54.44
2023-08-15T07:25:49.482Z,52.91
2023-08-15T07:30:54.047Z,50.72
2023-08-15T07:35:57.278Z,47.19
2023-08-15T07:41:00.558Z,45.16
2023-08-15T07:46:05.246Z,43.74
2023-08-15T07:51:08.601Z,41.91
2023-08-15T07:56:11.839Z,42.87
2023-08-15T08:01:16.430Z,41.80
2023-08-15T08:06:37.303Z,40.77
2023-08-15T08:11:42.865Z,38.65
2023-08-15T08:16:47.558Z,38.50
2023-08-15T08:21:50.772Z,38.99
2023-08-15T08:26:54.077Z,37.73
2023-08-15T08:31:58.731Z,38.25
2023-08-15T08:37:01.982Z,36.92
2023-08-15T08:42:05.953Z,36.49
2023-08-15T08:47:10.600Z,35.20
2023-08-15T08:52:15.308Z,33.67
2023-08-15T08:57:20.023Z,33.40
2023-08-15T09:02:25.567Z,32.52
2023-08-15T09:07:28.876Z,32.50
2023-08-15T09:12:36.148Z,32.11
2023-08-15T09:17:41.522Z,32.81
2023-08-15T09:22:46.948Z,32.62
2023-08-15T09:27:50.272Z,32.37
2023-08-15T09:32:54.998Z,32.02
2023-08-15T09:37:58.260Z,31.78
2023-08-15T09:43:01.603Z,32.21
2023-08-15T09:48:07.290Z,32.79
2023-08-15T09:53:11.470Z,32.67
2023-08-15T09:58:15.005Z,31.55
2023-08-15T10:03:22.216Z,31.11
2023-08-15T10:08:26.440Z,31.30
2023-08-15T10:13:32.975Z,31.34
2023-08-15T10:18:37.796Z,31.46
2023-08-15T10:23:42.096Z,30.78
2023-08-15T10:28:47.660Z,31.40
2023-08-15T10:33:52.771Z,32.09
2023-08-15T10:38:56.100Z,32.10
2023-08-15T10:44:00.415Z,32.13
2023-08-15T10:49:09.600Z,31.95
2023-08-15T10:54:14.939Z,31.84
2023-08-15T10:59:18.968Z,31.14
2023-08-15T11:04:25.006Z,30.68
2023-08-15T11:09:30.080Z,30.25
2023-08-15T11:14:34.966Z,30.24
2023-08-15T11:19:39.685Z,30.82
2023-08-15T11:24:42.934Z,31.45
2023-08-15T11:29:46.978Z,31.08
2023-08-15T11:34:51.758Z,30.88
2023-08-15T11:39:56.171Z,32.04
2023-08-15T11:45:04.014Z,30.83
2023-08-15T11:50:12.751Z,30.08
2023-08-15T11:55:16.167Z,29.86
2023-08-15T12:00:20.536Z,30.75
2023-08-15T12:05:25.249Z,30.41
2023-08-15T12:10:28.599Z,30.60
2023-08-15T12:15:31.803Z,30.11
2023-08-15T12:20:36.322Z,29.50
2023-08-15T12:25:39.539Z,29.86
2023-08-15T12:30:43.132Z,29.22
2023-08-15T12:35:50.469Z,29.58
2023-08-15T12:40:54.027Z,29.11
2023-08-15T12:45:57.275Z,27.64
2023-08-15T12:51:01.923Z,27.10
2023-08-15T12:56:05.589Z,26.87
2023-08-15T13:01:09.620Z,25.06
2023-08-15T13:06:14.996Z,25.19
2023-08-15T13:11:18.248Z,24.91
2023-08-15T13:16:21.438Z,25.06
2023-08-15T13:21:27.615Z,24.47
2023-08-15T13:26:31.192Z,24.76
2023-08-15T13:31:34.730Z,24.30
2023-08-15T13:36:39.402Z,22.59
2023-08-15T13:41:44.394Z,23.28
2023-08-15T13:46:48.652Z,23.06
2023-08-15T13:51:53.329Z,22.87
2023-08-15T13:56:56.629Z,22.83
2023-08-15T14:02:00.264Z,22.57
2023-08-15T14:07:05.119Z,22.84
2023-08-15T14:12:08.929Z,21.95
2023-08-15T14:17:12.182Z,22.36
2023-08-15T14:22:17.297Z,22.12
2023-08-15T14:27:21.055Z,22.07
2023-08-15T14:32:24.700Z,21.98
2023-08-15T14:37:29.905Z,20.49
2023-08-15T14:42:33.118Z,21.21
2023-08-15T14:47:37.441Z,20.70
2023-08-15T14:52:43.524Z,21.54
2023-08-15T14:57:46.829Z,21.52
2023-08-15T15:02:50.250Z,21.10
2023-08-15T15:07:54.872Z,22.10
2023-08-15T15:12:58.022Z,21.50
2023-08-15T15:18:01.304Z,21.55
2023-08-15T15:23:06.362Z,21.51
2023-08-15T15:28:09.546Z,22.08
2023-08-15T15:33:12.804Z,21.71
2023-08-15T15:38:17.702Z,21.93
2023-08-15T15:43:22.537Z,21.92
2023-08-15T15:48:25.857Z,21.52
2023-08-15T15:53:30.496Z,21.57
2023-08-15T15:58:33.747Z,22.36
2023-08-15T16:03:37.065Z,22.53
2023-08-15T16:08:41.732Z,22.85
2023-08-15T16:13:44.972Z,24.24
2023-08-15T16:18:48.419Z,23.99
2023-08-15T16:23:53.155Z,25.01
2023-08-15T16:28:56.471Z,24.92
2023-08-15T16:33:59.923Z,25.06
2023-08-15T16:39:04.861Z,25.30
2023-08-15T16:44:08.116Z,25.11
2023-08-15T16:49:12.735Z,24.36
2023-08-15T16:54:17.516Z,24.89
2023-08-15T16:59:20.851Z,25.29
2023-08-15T17:04:24.650Z,24.83
2023-08-15T17:09:30.475Z,25.38
2023-08-15T17:14:33.712Z,27.22
2023-08-15T17:19:40.108Z,26.47
2023-08-15T17:24:47.897Z,25.83
2023-08-15T17:29:51.156Z,25.66
2023-08-15T17:34:55.132Z,26.47
2023-08-15T17:39:59.809Z,27.26
2023-08-15T17:45:05.283Z,27.84
2023-08-15T17:50:13.803Z,29.64
2023-08-15T17:55:23.828Z,30.40
2023-08-15T18:00:29.307Z,30.43
2023-08-15T18:05:35.357Z,32.57
2023-08-15T18:10:44.071Z,35.07
2023-08-15T18:15:50.145Z,36.40
2023-08-15T18:20:57.360Z,38.12
2023-08-15T18:26:04.611Z,37.47
2023-08-15T18:31:08.829Z,38.69
2023-08-15T18:36:13.638Z,40.20
2023-08-15T18:41:22.710Z,41.91
2023-08-15T18:46:30.219Z,42.32
2023-08-15T18:51:34.920Z,43.97
2023-08-15T18:56:41.332Z,43.25
2023-08-15T19:01:45.270Z,43.52
2023-08-15T19:06:55.077Z,44.10
2023-08-15T19:12:04.874Z,45.83
2023-08-15T19:17:13.989Z,46.37
2023-08-15T19:22:19.760Z,46.27
2023-08-15T19:27:25.334Z,47.56
2023-08-15T19:32:29.359Z,48.17
2023-08-15T19:37:37.728Z,49.04
2023-08-15T19:42:45.574Z,49.32
2023-08-15T19:47:49.135Z,46.82
2023-08-15T19:52:52.986Z,46.79
2023-08-15T19:57:58.118Z,46.78
2023-08-15T20:03:01.495Z,48.88
2023-08-15T20:08:04.994Z,49.80
2023-08-15T20:13:09.638Z,50.21
2023-08-15T20:18:14.187Z,50.95
2023-08-15T20:23:17.531Z,51.95
2023-08-15T20:28:22.300Z,51.10
2023-08-15T20:33:25.481Z,54.31
2023-08-15T20:38:29.082Z,52.43
2023-08-15T20:43:34.137Z,56.29
2023-08-15T20:48:37.361Z,54.89
2023-08-15T20:53:40.594Z,55.08
2023-08-15T20:58:45.146Z,53.44
2023-08-15T21:03:48.389Z,51.84
2023-08-15T21:08:51.692Z,53.01
2023-08-15T21:13:57.433Z,53.91
2023-08-15T21:19:00.609Z,54.47
2023-08-15T21:24:04.201Z,56.63
2023-08-15T21:29:09.334Z,56.33
2023-08-15T21:34:12.567Z,55.84
2023-08-15T21:39:16.827Z,56.42
2023-08-15T21:44:21.551Z,55.54
2023-08-15T21:49:25.350Z,56.39
2023-08-15T21:54:28.539Z,55.80
2023-08-15T21:59:33.136Z,57.89
2023-08-15T22:04:36.322Z,57.33
2023-08-15T22:09:39.655Z,57.19
2023-08-15T22:14:44.275Z,58.69
2023-08-15T22:19:47.577Z,60.11
2023-08-15T22:24:57.164Z,58.88
2023-08-15T22:30:02.191Z,59.40
2023-08-15T22:35:06.083Z,59.27
2023-08-15T22:40:10.373Z,60.86
2023-08-15T22:45:15.057Z,59.36
2023-08-15T22:50:18.435Z,60.91
2023-08-15T22:55:21.651Z,59.65
2023-08-15T23:00:26.341Z,62.98
2023-08-15T23:05:29.635Z,63.36
2023-08-15T23:10:32.818Z,62.28
2023-08-15T23:15:37.517Z,63.73
2023-08-15T23:20:40.808Z,61.47
2023-08-15T23:25:44.010Z,63.24
2023-08-15T23:30:49.857Z,61.52
2023-08-15T23:35:53.190Z,62.77
2023-08-15T23:40:56.506Z,65.46
2023-08-15T23:46:01.131Z,62.46
2023-08-15T23:51:04.708Z,62.75
2023-08-15T23:56:07.925Z,64.27
